Wetterstation Vordersexau
Wetterdaten: Woche 21.12.15 - 27.12.15 (KW52)
Datum Zeit Temp. A. Feuchte A. Luftdruck Regen Wind Richtung Taupunkt Windchill Windben
21.12.2015 00:00 13,6 C 72 % 1021,7 hPa 0,0 l/m 30,5 km/h S 8,6 C 5,6 C 16,9 km/h
21.12.2015 01:00 13,3 C 73 % 1021,7 hPa 0,0 l/m 23,3 km/h S-SW 8,6 C 6,7 C 13,0 km/h
21.12.2015 02:00 13,3 C 72 % 1021,5 hPa 0,0 l/m 41,5 km/h W-SW 8,4 C 3,6 C 23,0 km/h
21.12.2015 03:00 13,4 C 71 % 1022,1 hPa 0,0 l/m 20,7 km/h S-SW 8,3 C 7,5 C 11,5 km/h
21.12.2015 04:00 13,4 C 71 % 1022,2 hPa 0,0 l/m 25,9 km/h S-SW 8,3 C 6,2 C 14,4 km/h
21.12.2015 05:00 13,2 C 71 % 1022,3 hPa 0,0 l/m 16,8 km/h SW 8,1 C 8,4 C 9,4 km/h
21.12.2015 06:00 12,6 C 75 % 1023,1 hPa 0,0 l/m 13,6 km/h N-NO 8,3 C 8,8 C 7,6 km/h
21.12.2015 07:00 10,1 C 84 % 1024,4 hPa 0,8 l/m 13,0 km/h NO 7,5 C 6,1 C 7,2 km/h
21.12.2015 08:00 8,5 C 86 % 1026,2 hPa 1,7 l/m 0,0 km/h SO 6,3 C 8,5 C 0,0 km/h
21.12.2015 09:00 8,4 C 87 % 1026,8 hPa 1,2 l/m 0,0 km/h S 6,4 C 8,4 C 0,0 km/h
21.12.2015 10:00 8,4 C 87 % 1026,8 hPa 0,8 l/m 21,4 km/h S 6,4 C 0,7 C 11,9 km/h
21.12.2015 11:00 9,1 C 88 % 1026,9 hPa 0,4 l/m 0,0 km/h W-SW 7,2 C 9,1 C 0,0 km/h
21.12.2015 12:00 10,1 C 83 % 1026,7 hPa 0,0 l/m 16,2 km/h W-SW 7,3 C 4,8 C 9,0 km/h
21.12.2015 13:00 11,3 C 76 % 1026,5 hPa 0,0 l/m 24,6 km/h W-SW 7,2 C 3,7 C 13,7 km/h
21.12.2015 14:00 12,9 C 70 % 1026,1 hPa 0,0 l/m 19,4 km/h S-SW 7,6 C 7,2 C 10,8 km/h
21.12.2015 15:00 13,8 C 66 % 1026,2 hPa 0,0 l/m 22,7 km/h SW 7,6 C 7,5 C 12,6 km/h
21.12.2015 16:00 9,9 C 75 % 1026,4 hPa 0,0 l/m 10,4 km/h W-SW 5,7 C 7,3 C 5,8 km/h
21.12.2015 17:00 9,7 C 76 % 1027,1 hPa 0,0 l/m 5,8 km/h S 5,7 C 9,7 C 3,2 km/h
21.12.2015 18:00 8,4 C 78 % 1027,2 hPa 0,0 l/m 1,3 km/h W-SW 4,8 C 8,4 C 0,7 km/h
21.12.2015 19:00 9,8 C 75 % 1027,4 hPa 0,0 l/m 22,0 km/h W-SW 5,6 C 2,4 C 12,2 km/h
21.12.2015 20:00 10,1 C 71 % 1028,3 hPa 0,0 l/m 12,3 km/h W-SW 5,1 C 6,5 C 6,8 km/h
21.12.2015 21:00 10,3 C 68 % 1028,1 hPa 0,0 l/m 18,8 km/h SW 4,7 C 4,1 C 10,4 km/h
21.12.2015 22:00 10,5 C 68 % 1028,6 hPa 0,0 l/m 22,7 km/h S 4,8 C 3,1 C 12,6 km/h
21.12.2015 23:00 11,3 C 67 % 1028,7 hPa 0,0 l/m 25,3 km/h W-SW 5,4 C 3,5 C 14,0 km/h
22.12.2015 00:00 11,2 C 70 % 1028,8 hPa 0,0 l/m 28,5 km/h S-SW 5,9 C 2,7 C 15,8 km/h
22.12.2015 01:00 11,1 C 74 % 1028,8 hPa 0,0 l/m 20,1 km/h S-SW 6,6 C 4,7 C 11,2 km/h
22.12.2015 02:00 11,5 C 73 % 1028,4 hPa 0,0 l/m 19,4 km/h W-SW 6,8 C 5,4 C 10,8 km/h
22.12.2015 03:00 11,8 C 71 % 1028,7 hPa 0,0 l/m 15,6 km/h W-SW 6,7 C 7,1 C 8,6 km/h
22.12.2015 04:00 11,8 C 70 % 1028,2 hPa 0,0 l/m 24,6 km/h SW 6,5 C 4,4 C 13,7 km/h
22.12.2015 05:00 11,6 C 70 % 1028,0 hPa 0,0 l/m 21,4 km/h W 6,3 C 4,9 C 11,9 km/h
22.12.2015 06:00 11,6 C 68 % 1028,3 hPa 0,0 l/m 8,4 km/h W-SW 5,9 C 10,3 C 4,7 km/h
22.12.2015 07:00 11,5 C 66 % 1027,8 hPa 0,0 l/m 22,7 km/h S 5,4 C 4,5 C 12,6 km/h
22.12.2015 08:00 10,4 C 68 % 1028,0 hPa 0,0 l/m 3,9 km/h S-SW 4,8 C 10,4 C 2,2 km/h
22.12.2015 09:00 14,4 C 62 % 1028,3 hPa 0,0 l/m 4,5 km/h S-SW 7,2 C 14,4 C 2,5 km/h
22.12.2015 10:00 16,5 C 59 % 1028,4 hPa 0,0 l/m 1,9 km/h W-SW 8,5 C 16,5 C 1,1 km/h
22.12.2015 11:00 14,6 C 62 % 1027,9 hPa 0,0 l/m 20,1 km/h W-SW 7,4 C 9,2 C 11,2 km/h
22.12.2015 12:00 16,1 C 55 % 1027,1 hPa 0,0 l/m 22,0 km/h SW 7,1 C 10,7 C 12,2 km/h
22.12.2015 13:00 15,2 C 55 % 1026,7 hPa 0,0 l/m 0,0 km/h W-SW 6,2 C 15,2 C 0,0 km/h
22.12.2015 14:00 14,8 C 50 % 1026,1 hPa 0,0 l/m 11,0 km/h W-SW 4,5 C 12,5 C 6,1 km/h
22.12.2015 15:00 15,3 C 46 % 1026,1 hPa 0,0 l/m 7,8 km/h SW 3,8 C 14,5 C 4,3 km/h
22.12.2015 16:00 13,1 C 53 % 1026,2 hPa 0,0 l/m 0,0 km/h S 3,7 C 13,1 C 0,0 km/h
22.12.2015 17:00 11,6 C 62 % 1025,9 hPa 0,0 l/m 0,0 km/h S 4,6 C 11,6 C 0,0 km/h
22.12.2015 18:00 9,8 C 69 % 1025,6 hPa 0,0 l/m 0,0 km/h S 4,4 C 9,8 C 0,0 km/h
22.12.2015 19:00 9,9 C 74 % 1025,6 hPa 0,0 l/m 0,6 km/h O 5,5 C 9,9 C 0,4 km/h
22.12.2015 20:00 7,5 C 78 % 1025,6 hPa 0,0 l/m 0,0 km/h S-SO 3,9 C 7,5 C 0,0 km/h
22.12.2015 21:00 9,8 C 78 % 1025,3 hPa 0,0 l/m 0,6 km/h S-SW 6,1 C 9,8 C 0,4 km/h
22.12.2015 22:00 11,3 C 76 % 1025,3 hPa 0,0 l/m 20,7 km/h S-SW 7,2 C 4,8 C 11,5 km/h
22.12.2015 23:00 10,9 C 75 % 1025,3 hPa 0,0 l/m 9,7 km/h S-SO 6,6 C 8,8 C 5,4 km/h
23.12.2015 00:00 10,8 C 75 % 1025,0 hPa 0,0 l/m 19,4 km/h S-SO 6,5 C 4,5 C 10,8 km/h
23.12.2015 01:00 11,1 C 73 % 1025,0 hPa 0,0 l/m 10,4 km/h S-SW 6,4 C 8,6 C 5,8 km/h
23.12.2015 02:00 11,0 C 73 % 1025,2 hPa 0,0 l/m 20,7 km/h SW 6,4 C 4,4 C 11,5 km/h
23.12.2015 03:00 10,8 C 74 % 1025,7 hPa 0,0 l/m 19,4 km/h SW 6,4 C 4,5 C 10,8 km/h
23.12.2015 04:00 10,1 C 74 % 1025,7 hPa 0,0 l/m 8,4 km/h S-SW 5,7 C 8,7 C 4,7 km/h
23.12.2015 05:00 9,9 C 76 % 1025,8 hPa 0,0 l/m 3,2 km/h S-SW 5,9 C 9,9 C 1,8 km/h
23.12.2015 06:00 10,4 C 74 % 1026,0 hPa 0,0 l/m 13,0 km/h SO 6,0 C 6,5 C 7,2 km/h
23.12.2015 07:00 9,6 C 74 % 1026,5 hPa 0,0 l/m 5,8 km/h SO 5,2 C 9,6 C 3,2 km/h
23.12.2015 08:00 8,9 C 77 % 1026,9 hPa 0,0 l/m 0,0 km/h S-SO 5,1 C 8,9 C 0,0 km/h
23.12.2015 09:00 11,5 C 70 % 1027,5 hPa 0,0 l/m 7,8 km/h SW 6,2 C 10,6 C 4,3 km/h
23.12.2015 10:00 12,5 C 68 % 1027,6 hPa 0,0 l/m 14,9 km/h S 6,8 C 8,2 C 8,3 km/h
23.12.2015 11:00 13,2 C 67 % 1027,5 hPa 0,0 l/m 22,7 km/h S-SW 7,2 C 6,7 C 12,6 km/h
23.12.2015 12:00 13,1 C 69 % 1027,2 hPa 0,0 l/m 30,5 km/h SW 7,5 C 4,9 C 16,9 km/h
23.12.2015 13:00 12,8 C 72 % 1027,2 hPa 0,0 l/m 5,8 km/h SW 7,9 C 12,8 C 3,2 km/h
23.12.2015 14:00 12,7 C 75 % 1027,1 hPa 0,0 l/m 14,9 km/h SW 8,4 C 8,4 C 8,3 km/h
23.12.2015 15:00 12,9 C 75 % 1027,3 hPa 0,0 l/m 7,8 km/h SW 8,6 C 12,0 C 4,3 km/h
23.12.2015 16:00 12,1 C 76 % 1027,3 hPa 0,0 l/m 3,2 km/h W 8,0 C 12,1 C 1,8 km/h
23.12.2015 17:00 11,6 C 79 % 1027,4 hPa 0,0 l/m 9,7 km/h W 8,1 C 9,5 C 5,4 km/h
23.12.2015 18:00 11,2 C 80 % 1027,5 hPa 0,0 l/m 0,0 km/h W-NW 7,9 C 11,2 C 0,0 km/h
23.12.2015 19:00 10,8 C 81 % 1027,4 hPa 0,0 l/m 0,0 km/h W-NW 7,7 C 10,8 C 0,0 km/h
23.12.2015 20:00 10,2 C 82 % 1027,2 hPa 0,0 l/m 0,0 km/h W-NW 7,3 C 10,2 C 0,0 km/h
23.12.2015 21:00 9,8 C 83 % 1027,2 hPa 0,0 l/m 0,0 km/h W-NW 7,1 C 9,8 C 0,0 km/h
23.12.2015 22:00 9,2 C 84 % 1026,6 hPa 0,0 l/m 0,0 km/h W-NW 6,6 C 9,2 C 0,0 km/h
23.12.2015 23:00 7,7 C 86 % 1026,1 hPa 0,0 l/m 0,0 km/h S-SO 5,5 C 7,7 C 0,0 km/h
24.12.2015 00:00 7,3 C 87 % 1025,8 hPa 0,0 l/m 0,0 km/h S-SO 5,3 C 7,3 C 0,0 km/h
24.12.2015 01:00 6,9 C 87 % 1025,2 hPa 0,0 l/m 0,0 km/h S-SO 4,9 C 6,9 C 0,0 km/h
24.12.2015 02:00 6,5 C 88 % 1024,8 hPa 0,0 l/m 0,0 km/h S-SO 4,7 C 6,5 C 0,0 km/h
24.12.2015 03:00 5,6 C 88 % 1024,8 hPa 0,0 l/m 0,0 km/h SO 3,8 C 5,6 C 0,0 km/h
24.12.2015 04:00 6,9 C 87 % 1024,1 hPa 0,0 l/m 0,0 km/h SO 4,9 C 6,9 C 0,0 km/h
24.12.2015 05:00 5,8 C 88 % 1023,8 hPa 0,0 l/m 0,0 km/h SO 4,0 C 5,8 C 0,0 km/h
24.12.2015 06:00 5,6 C 88 % 1024,0 hPa 0,0 l/m 0,0 km/h SO 3,8 C 5,6 C 0,0 km/h
24.12.2015 07:00 6,9 C 87 % 1023,7 hPa 0,0 l/m 0,0 km/h SO 4,9 C 6,9 C 0,0 km/h
24.12.2015 08:00 7,6 C 88 % 1023,6 hPa 0,0 l/m 0,0 km/h SO 5,7 C 7,6 C 0,0 km/h
24.12.2015 09:00 8,8 C 88 % 1024,0 hPa 0,0 l/m 0,0 km/h S 6,9 C 8,8 C 0,0 km/h
24.12.2015 10:00 10,4 C 85 % 1023,8 hPa 0,0 l/m 13,6 km/h S-SO 8,0 C 6,2 C 7,6 km/h
24.12.2015 11:00 17,9 C 70 % 1023,1 hPa 0,0 l/m 0,0 km/h W 12,3 C 17,9 C 0,0 km/h
24.12.2015 12:00 19,3 C 56 % 1022,2 hPa 0,0 l/m 0,0 km/h W 10,3 C 19,3 C 0,0 km/h
24.12.2015 13:00 18,9 C 51 % 1021,5 hPa 0,0 l/m 1,9 km/h W 8,5 C 18,9 C 1,1 km/h
24.12.2015 14:00 18,8 C 47 % 1021,7 hPa 0,0 l/m 22,0 km/h W-NW 7,2 C 14,3 C 12,2 km/h
24.12.2015 15:00 14,3 C 57 % 1022,3 hPa 0,0 l/m 0,0 km/h S 5,9 C 14,3 C 0,0 km/h
24.12.2015 16:00 12,9 C 62 % 1022,8 hPa 0,0 l/m 0,0 km/h SW 5,8 C 12,9 C 0,0 km/h
24.12.2015 17:00 12,9 C 64 % 1023,3 hPa 0,0 l/m 3,2 km/h S-SW 6,3 C 12,9 C 1,8 km/h
24.12.2015 18:00 12,3 C 66 % 1024,0 hPa 0,0 l/m 0,0 km/h SO 6,1 C 12,3 C 0,0 km/h
24.12.2015 19:00 11,6 C 69 % 1024,8 hPa 0,0 l/m 0,0 km/h S-SW 6,1 C 11,6 C 0,0 km/h
24.12.2015 20:00 12,9 C 67 % 1025,1 hPa 0,0 l/m 9,7 km/h SW 6,9 C 11,0 C 5,4 km/h
24.12.2015 21:00 13,2 C 67 % 1025,2 hPa 0,0 l/m 8,4 km/h SW 7,2 C 12,0 C 4,7 km/h
24.12.2015 22:00 13,2 C 66 % 1025,3 hPa 0,0 l/m 10,4 km/h S 7,0 C 10,9 C 5,8 km/h
24.12.2015 23:00 13,1 C 67 % 1025,8 hPa 0,0 l/m 17,5 km/h S 7,1 C 8,0 C 9,7 km/h
25.12.2015 00:00 11,8 C 69 % 1026,0 hPa 0,0 l/m 0,0 km/h S-SO 6,3 C 11,8 C 0,0 km/h
25.12.2015 01:00 10,6 C 73 % 1026,1 hPa 0,0 l/m 0,0 km/h S 6,0 C 10,6 C 0,0 km/h
25.12.2015 02:00 11,6 C 73 % 1026,7 hPa 0,0 l/m 0,0 km/h W 6,9 C 11,6 C 0,0 km/h
25.12.2015 03:00 12,5 C 71 % 1027,0 hPa 0,0 l/m 0,0 km/h W 7,4 C 12,5 C 0,0 km/h
25.12.2015 04:00 12,6 C 71 % 1027,3 hPa 0,0 l/m 7,1 km/h S 7,5 C 12,2 C 4,0 km/h
25.12.2015 05:00 11,4 C 75 % 1027,4 hPa 0,0 l/m 21,4 km/h S-SW 7,1 C 4,7 C 11,9 km/h
25.12.2015 06:00 11,5 C 75 % 1027,7 hPa 0,0 l/m 0,0 km/h S 7,2 C 11,5 C 0,0 km/h
25.12.2015 07:00 10,9 C 76 % 1028,1 hPa 0,0 l/m 4,5 km/h O 6,8 C 10,9 C 2,5 km/h
25.12.2015 08:00 8,6 C 79 % 1028,4 hPa 0,0 l/m 0,0 km/h S-SO 5,2 C 8,6 C 0,0 km/h
25.12.2015 09:00 14,6 C 71 % 1028,8 hPa 0,0 l/m 7,1 km/h S-SW 9,4 C 14,2 C 4,0 km/h
25.12.2015 10:00 16,6 C 62 % 1029,2 hPa 0,0 l/m 6,5 km/h W 9,3 C 16,6 C 3,6 km/h
25.12.2015 11:00 17,2 C 59 % 1028,9 hPa 0,0 l/m 31,8 km/h W 9,1 C 10,5 C 17,6 km/h
25.12.2015 12:00 16,6 C 62 % 1028,8 hPa 0,0 l/m 20,1 km/h W 9,3 C 11,8 C 11,2 km/h
25.12.2015 13:00 16,5 C 62 % 1028,4 hPa 0,0 l/m 13,0 km/h W-SW 9,2 C 13,6 C 7,2 km/h
25.12.2015 14:00 16,9 C 59 % 1028,1 hPa 0,0 l/m 14,3 km/h W-SW 8,8 C 13,7 C 7,9 km/h
25.12.2015 15:00 16,1 C 60 % 1028,4 hPa 0,0 l/m 7,1 km/h S 8,3 C 15,7 C 4,0 km/h
25.12.2015 16:00 13,3 C 64 % 1028,7 hPa 0,0 l/m 0,0 km/h NO 6,6 C 13,3 C 0,0 km/h
25.12.2015 17:00 9,8 C 74 % 1028,9 hPa 0,0 l/m 0,0 km/h N-NO 5,4 C 9,8 C 0,0 km/h
25.12.2015 18:00 8,3 C 79 % 1029,4 hPa 0,0 l/m 0,0 km/h NO 4,9 C 8,3 C 0,0 km/h
25.12.2015 19:00 6,9 C 82 % 1029,6 hPa 0,0 l/m 0,0 km/h NO 4,0 C 6,9 C 0,0 km/h
25.12.2015 20:00 6,3 C 85 % 1029,6 hPa 0,0 l/m 0,0 km/h O-NO 4,0 C 6,3 C 0,0 km/h
25.12.2015 21:00 5,8 C 86 % 1029,7 hPa 0,0 l/m 0,0 km/h O-NO 3,6 C 5,8 C 0,0 km/h
25.12.2015 22:00 5,4 C 86 % 1029,6 hPa 0,0 l/m 0,0 km/h O 3,3 C 5,4 C 0,0 km/h
25.12.2015 23:00 5,6 C 87 % 1030,0 hPa 0,0 l/m 0,0 km/h O 3,6 C 5,6 C 0,0 km/h
26.12.2015 00:00 5,3 C 87 % 1029,9 hPa 0,0 l/m 0,0 km/h O-NO 3,3 C 5,3 C 0,0 km/h
26.12.2015 01:00 4,8 C 88 % 1029,5 hPa 0,0 l/m 0,0 km/h NO 3,0 C 4,8 C 0,0 km/h
26.12.2015 02:00 5,0 C 88 % 1029,5 hPa 0,0 l/m 0,0 km/h NO 3,2 C 5,0 C 0,0 km/h
26.12.2015 03:00 4,6 C 88 % 1029,5 hPa 0,0 l/m 0,0 km/h O-SO 2,8 C 4,6 C 0,0 km/h
26.12.2015 04:00 4,2 C 88 % 1029,3 hPa 0,0 l/m 0,0 km/h O-NO 2,4 C 4,2 C 0,0 km/h
26.12.2015 05:00 4,0 C 88 % 1029,3 hPa 0,0 l/m 0,0 km/h O-SO 2,2 C 4,0 C 0,0 km/h
26.12.2015 06:00 4,3 C 88 % 1029,3 hPa 0,0 l/m 0,0 km/h O-SO 2,5 C 4,3 C 0,0 km/h
26.12.2015 07:00 4,3 C 88 % 1029,0 hPa 0,0 l/m 0,0 km/h O-SO 2,5 C 4,3 C 0,0 km/h
26.12.2015 08:00 4,5 C 88 % 1028,9 hPa 0,0 l/m 0,0 km/h O-NO 2,7 C 4,5 C 0,0 km/h
26.12.2015 09:00 9,9 C 87 % 1028,9 hPa 0,0 l/m 0,0 km/h SW 7,8 C 9,9 C 0,0 km/h
26.12.2015 10:00 15,6 C 70 % 1029,0 hPa 0,0 l/m 9,7 km/h S-SW 10,1 C 13,9 C 5,4 km/h
26.12.2015 11:00 16,2 C 61 % 1028,7 hPa 0,0 l/m 21,4 km/h S-SW 8,7 C 11,0 C 11,9 km/h
26.12.2015 12:00 16,3 C 60 % 1027,9 hPa 0,0 l/m 20,1 km/h SW 8,5 C 11,4 C 11,2 km/h
26.12.2015 13:00 16,2 C 59 % 1027,2 hPa 0,0 l/m 18,8 km/h W 8,2 C 11,6 C 10,4 km/h
26.12.2015 14:00 16,6 C 56 % 1027,0 hPa 0,0 l/m 19,4 km/h W 7,8 C 12,0 C 10,8 km/h
26.12.2015 15:00 16,6 C 55 % 1026,9 hPa 0,0 l/m 8,4 km/h W-NW 7,5 C 15,6 C 4,7 km/h
26.12.2015 16:00 12,7 C 61 % 1027,3 hPa 0,0 l/m 0,0 km/h S-SO 5,4 C 12,7 C 0,0 km/h
26.12.2015 17:00 7,6 C 77 % 1027,3 hPa 0,0 l/m 0,0 km/h S-SO 3,8 C 7,6 C 0,0 km/h
26.12.2015 18:00 5,6 C 81 % 1027,6 hPa 0,0 l/m 0,0 km/h S-SO 2,6 C 5,6 C 0,0 km/h
26.12.2015 19:00 4,9 C 85 % 1027,7 hPa 0,0 l/m 0,0 km/h SO 2,6 C 4,9 C 0,0 km/h
26.12.2015 20:00 4,4 C 86 % 1027,8 hPa 0,0 l/m 0,0 km/h SO 2,3 C 4,4 C 0,0 km/h
26.12.2015 21:00 4,1 C 87 % 1027,6 hPa 0,0 l/m 0,0 km/h O-SO 2,1 C 4,1 C 0,0 km/h
26.12.2015 22:00 4,3 C 88 % 1027,4 hPa 0,0 l/m 0,0 km/h O-SO 2,5 C 4,3 C 0,0 km/h
26.12.2015 23:00 4,1 C 88 % 1027,2 hPa 0,0 l/m 0,0 km/h O-SO 2,3 C 4,1 C 0,0 km/h
27.12.2015 00:00 3,0 C 88 % 1027,0 hPa 0,0 l/m 0,0 km/h O-SO 1,2 C 3,0 C 0,0 km/h
27.12.2015 01:00 3,6 C 88 % 1027,0 hPa 0,0 l/m 0,0 km/h O-SO 1,8 C 3,6 C 0,0 km/h
27.12.2015 02:00 3,4 C 88 % 1027,1 hPa 0,0 l/m 0,0 km/h O-SO 1,6 C 3,4 C 0,0 km/h
27.12.2015 03:00 2,9 C 88 % 1027,1 hPa 0,0 l/m 0,0 km/h O-SO 1,1 C 2,9 C 0,0 km/h
27.12.2015 04:00 2,5 C 88 % 1026,8 hPa 0,0 l/m 0,0 km/h O-SO 0,7 C 2,5 C 0,0 km/h
27.12.2015 05:00 2,8 C 88 % 1027,3 hPa 0,0 l/m 0,0 km/h O-SO 1,0 C 2,8 C 0,0 km/h
27.12.2015 06:00 2,5 C 88 % 1027,5 hPa 0,0 l/m 0,0 km/h O-SO 0,7 C 2,5 C 0,0 km/h
27.12.2015 07:00 2,8 C 88 % 1027,8 hPa 0,0 l/m 0,0 km/h SO 1,0 C 2,8 C 0,0 km/h
27.12.2015 08:00 3,1 C 88 % 1028,1 hPa 0,0 l/m 0,0 km/h O-SO 1,3 C 3,1 C 0,0 km/h
27.12.2015 09:00 6,1 C 88 % 1028,8 hPa 0,0 l/m 4,5 km/h O-SO 4,3 C 6,1 C 2,5 km/h
27.12.2015 10:00 12,2 C 77 % 1029,4 hPa 0,0 l/m 0,0 km/h SO 8,3 C 12,2 C 0,0 km/h
27.12.2015 11:00 17,2 C 62 % 1029,4 hPa 0,0 l/m 8,4 km/h SO 9,9 C 16,2 C 4,7 km/h
27.12.2015 12:00 18,4 C 56 % 1028,9 hPa 0,0 l/m 0,0 km/h W-SW 9,5 C 18,4 C 0,0 km/h
27.12.2015 13:00 17,9 C 53 % 1028,8 hPa 0,0 l/m 3,2 km/h W-SW 8,2 C 17,9 C 1,8 km/h
27.12.2015 14:00 17,1 C 55 % 1028,7 hPa 0,0 l/m 1,9 km/h W-NW 8,0 C 17,1 C 1,1 km/h
27.12.2015 15:00 18,4 C 51 % 1028,7 hPa 0,0 l/m 0,0 km/h W-NW 8,1 C 18,4 C 0,0 km/h
27.12.2015 16:00 11,2 C 62 % 1028,8 hPa 0,0 l/m 0,0 km/h W-NW 4,2 C 11,2 C 0,0 km/h
27.12.2015 17:00 6,4 C 77 % 1029,1 hPa 0,0 l/m 0,0 km/h W-NW 2,7 C 6,4 C 0,0 km/h
27.12.2015 18:00 5,3 C 82 % 1028,8 hPa 0,0 l/m 0,0 km/h S-SO 2,5 C 5,3 C 0,0 km/h
27.12.2015 19:00 4,5 C 85 % 1029,0 hPa 0,0 l/m 0,0 km/h O-NO 2,2 C 4,5 C 0,0 km/h
27.12.2015 20:00 4,1 C 86 % 1028,7 hPa 0,0 l/m 0,0 km/h O-NO 2,0 C 4,1 C 0,0 km/h
27.12.2015 21:00 4,2 C 87 % 1028,5 hPa 0,0 l/m 0,0 km/h O 2,2 C 4,2 C 0,0 km/h
27.12.2015 22:00 3,4 C 87 % 1028,6 hPa 0,0 l/m 0,0 km/h O 1,4 C 3,4 C 0,0 km/h
27.12.2015 23:00 1,5 C 88 % 1028,4 hPa 0,0 l/m 0,0 km/h O -0,3 C 1,5 C 0,0 km/h
Min-Datum _ 27.12.15 22.12.15 21.12.15 - 21.12.15 - 27.12.15 21.12.15 21.12.15
_ Min-Zeit 23:42 15:42 02:42 - 08:42 - 23:42 10:42 08:42
Minimum _ 1,5 C 46 % 1021,5 hPa - 0,0 km/h - -0,3 C 0,7 C 0,0 km/h
Max-Datum _ 24.12.15 21.12.15 25.12.15 21.12.15 21.12.15 - 24.12.15 24.12.15 21.12.15
_ Max-Zeit 12:42 11:42 23:42 08:42 02:42 - 11:42 12:42 02:42
Maximum _ 19,3 C 88 % 1030,0 hPa 1,7 l/m 41,5 km/h
W-SW
- 12,3 C 19,3 C 23,0 km/h
W-SW
Durchschnitt _ 10,4 C 74 % 1026,9 hPa #5,0 l/m 7,3 km/h W-SW 5,8 C 8,5 C 4,1 km/h
www.sexauwetter.de